Altenburg Nobitz, Germany

9:33 PM CET on March 04, 2015 (GMT +0100)
Kotteritz | Change Station
CLOSE
Current Station
Personal Weather Station
Location: Nobitz, THüRINGEN
Elevation: 220 ft
Nearby Weather Stations

Elev 220 ft 50.97 °N, 12.47 °E | Updated 21 seconds ago

Clear
Clear
38.8 °F
Feels Like 39 °F
N
0.4
Wind Variable Wind from West
Gusts 2.5 mph

Today
High -- | Low -- °F
--% Chance of Precip.
Yesterday
High -- | Low -- °F
Precip. -- in
6:49 AM 5:55 PM
Waxing Gibbous, 99% visible
Pressure 30.24 in
Visibility -9999.0 miles
Clouds
Windchill 39 °F
Dew Point 28 °F
Humidity 66%
Rainfall 0.00 in
Snow Depth Not available.
UV 0.0 out of 12
Pollen Not available.
Air Quality Not available.
Flu Activity Not available.
METAR EDDP 042020Z 24013KT CAVOK 03/M00 Q1024 NOSIG

More Conditions Fewer Conditions

Pressure 30.24 in
Visibility -9999.0 miles
Clouds
Windchill 39 °F
Dew Point 28 °F
Humidity 66%
Rainfall 0.00 in
Snow Depth Not available.
UV 0.0 out of 12
Pollen Not available.
Air Quality Not available.
Flu Activity Not available.
METAR EDDP 042020Z 24013KT CAVOK 03/M00 Q1024 NOSIG

More Conditions Fewer Conditions

10-Day Weather Forecast

Almanac

Astronomy

Mar. 04, 2015 Rise Set
Actual Time
Civil Twilight
Nautical Twilight
Astronomical Twilight
Moon
Length of Visible Light
Length of Day
Tomorrow will be .
, % of the Moon is Illuminated

Today's Extremes

Country Highs Country Lows

Community

WunderPhotos

Upload Photos

1,802,575 photos uploaded!

WunderBlogs® & News

Nearby

Air Quality

  Air Quality AQ Index Pollutant
Not available.

Snow Depth

Station Depth Elevation

Earthquake Activity

City Distance Mag. Time & Date
Minimum magnitude displayed is 2.5.

Coastal Water Temperatures

Place Temperature

Nearby Weather Stations